Time;durP1;ratioP1;P1;durP2;ratioP2;P2;SDS_P1;SDS_P2;PMS_P1;PMS_P2;Temp;Humidity;BMP_temperature;BMP_pressure;BME280_temperature;BME280_humidity;BME280_pressure;Samples;Min_cycle;Max_cycle;Signal;HPM_P1;HPM_P2
2023/01/29 00:01:47;;;;;;;7.50;5.30;;;;;;;0.47;84.71;99243.84;5011535;28;20241;-76
2023/01/29 00:04:14;;;;;;;5.90;5.00;;;;;;;0.48;84.62;99246.44;5012135;28;20210;-78
2023/01/29 00:06:40;;;;;;;5.97;5.00;;;;;;;0.40;85.14;99240.47;5011785;28;20208;-76
2023/01/29 00:09:07;;;;;;;6.97;5.40;;;;;;;0.47;85.72;99239.50;5011269;28;20611;-76
2023/01/29 00:11:34;;;;;;;8.17;5.73;;;;;;;0.52;85.11;99248.13;5011551;28;20201;-76
2023/01/29 00:14:01;;;;;;;7.67;5.50;;;;;;;0.50;85.52;99249.84;5011626;28;20219;-76
2023/01/29 00:16:28;;;;;;;6.37;5.50;;;;;;;0.60;84.55;99240.19;5011483;28;20220;-76
2023/01/29 00:18:55;;;;;;;6.33;5.43;;;;;;;0.56;84.86;99243.75;5011183;28;20223;-76
2023/01/29 00:21:22;;;;;;;5.87;5.07;;;;;;;0.43;85.49;99240.41;5011626;28;20507;-76
2023/01/29 00:23:50;;;;;;;7.53;5.20;;;;;;;0.41;85.55;99249.97;5011515;28;20314;-76
2023/01/29 00:26:17;;;;;;;8.40;5.80;;;;;;;0.41;86.25;99251.69;5011443;28;20215;-76
2023/01/29 00:28:43;;;;;;;8.37;6.07;;;;;;;0.40;85.95;99261.25;5011300;28;20240;-76
2023/01/29 00:31:12;;;;;;;7.73;5.30;;;;;;;0.47;86.00;99249.91;5011168;28;20213;-76
2023/01/29 00:33:40;;;;;;;6.33;5.20;;;;;;;0.46;85.06;99244.72;5011467;28;20235;-76
2023/01/29 00:36:09;;;;;;;7.40;5.53;;;;;;;0.46;85.54;99248.19;5011377;28;20212;-76
2023/01/29 00:38:36;;;;;;;8.27;5.87;;;;;;;0.48;85.74;99245.56;5011167;28;20679;-76
2023/01/29 00:46:34;;;;;;;7.37;5.40;;;;;;;0.53;85.60;99243.75;5011422;28;20209;-76
2023/01/29 00:49:02;;;;;;;6.43;5.00;;;;;;;0.55;85.72;99242.88;5010749;28;20229;-76
2023/01/29 00:51:28;;;;;;;7.43;5.53;;;;;;;0.50;86.13;99249.00;5011299;28;20320;-78
2023/01/29 00:53:57;;;;;;;6.33;5.53;;;;;;;0.53;86.26;99244.63;5011012;28;20224;-76
2023/01/29 00:56:23;;;;;;;6.37;4.90;;;;;;;0.54;85.74;99246.34;5011367;28;20209;-76
2023/01/29 00:58:50;;;;;;;6.53;5.10;;;;;;;0.62;85.23;99251.47;5012763;28;20208;-76
2023/01/29 01:03:04;;;;;;;7.27;5.40;;;;;;;0.50;85.22;99252.44;5014984;28;20210;-76
2023/01/29 01:04:03;;;;;;;6.63;5.17;;;;;;;0.56;85.15;99249.78;5014675;28;20208;-77
2023/01/29 01:06:30;;;;;;;6.37;5.43;;;;;;;0.51;84.35;99246.38;5014726;28;20209;-76
2023/01/29 01:11:40;;;;;;;6.43;4.93;;;;;;;0.53;84.33;99234.22;5014849;28;20212;-76
2023/01/29 01:14:07;;;;;;;7.30;5.43;;;;;;;0.46;84.36;99231.72;5015173;28;20221;-76
2023/01/29 01:16:33;;;;;;;6.23;5.13;;;;;;;0.50;84.87;99236.84;5014590;28;20216;-76
2023/01/29 01:19:00;;;;;;;7.93;5.57;;;;;;;0.52;83.54;99240.31;5014159;28;20229;-76
2023/01/29 01:21:28;;;;;;;7.90;5.00;;;;;;;0.50;83.42;99234.25;5014739;28;20230;-76
2023/01/29 01:23:54;;;;;;;6.30;4.90;;;;;;;0.48;83.39;99228.22;5014646;28;20213;-76
2023/01/29 01:26:20;;;;;;;6.17;4.97;;;;;;;0.50;83.64;99218.66;5014936;28;20519;-76
2023/01/29 01:28:47;;;;;;;6.70;5.40;;;;;;;0.43;83.22;99227.41;5016515;28;20209;-76
2023/01/29 01:31:14;;;;;;;6.37;5.30;;;;;;;0.40;84.22;99232.66;5019364;28;20205;-76
2023/01/29 01:33:41;;;;;;;8.97;5.30;;;;;;;0.45;83.96;99230.84;5017510;28;20228;-76
2023/01/29 01:36:08;;;;;;;7.30;5.53;;;;;;;0.51;83.21;99235.13;5017202;28;20216;-76
2023/01/29 01:38:43;;;;;;;7.80;5.30;;;;;;;0.51;83.32;99240.31;5020276;28;20621;-75
2023/01/29 01:41:09;;;;;;;6.43;5.17;;;;;;;0.52;84.07;99239.44;5022585;28;20216;-75
2023/01/29 01:43:50;;;;;;;7.20;5.77;;;;;;;0.41;84.16;99233.50;5027842;28;20247;-76
2023/01/29 01:46:17;;;;;;;6.17;5.07;;;;;;;0.38;84.12;99234.41;5029129;28;20219;-76
2023/01/29 01:48:46;;;;;;;7.20;5.07;;;;;;;0.37;84.45;99232.69;5017024;28;20216;-76
2023/01/29 01:51:13;;;;;;;5.97;5.07;;;;;;;0.38;84.67;99229.19;5013692;28;20239;-76
2023/01/29 01:53:49;;;;;;;6.90;5.30;;;;;;;0.51;83.59;99230.75;5013983;28;20216;-76
2023/01/29 01:56:21;;;;;;;6.10;5.37;;;;;;;0.43;83.77;99227.41;5013821;28;20213;-76
2023/01/29 01:58:50;;;;;;;7.20;5.97;;;;;;;0.36;84.23;99236.16;5013241;28;20218;-76
2023/01/29 02:01:20;;;;;;;8.17;5.47;;;;;;;0.33;85.19;99228.38;5010697;28;20213;-76
2023/01/29 02:09:34;;;;;;;5.97;5.23;;;;;;;0.28;83.85;99224.13;5013211;28;20233;-76
2023/01/29 02:12:01;;;;;;;7.20;5.30;;;;;;;0.33;83.70;99235.34;5013766;28;20211;-76
2023/01/29 02:14:28;;;;;;;6.83;5.27;;;;;;;0.23;83.83;99231.09;5013574;28;20216;-76
2023/01/29 02:16:54;;;;;;;6.43;5.10;;;;;;;0.17;84.22;99234.66;5013469;28;20209;-76
2023/01/29 02:19:30;;;;;;;8.97;5.87;;;;;;;0.24;83.88;99236.28;5013042;28;20244;-76
2023/01/29 02:22:17;;;;;;;7.57;5.10;;;;;;;0.15;84.28;99230.34;5013446;28;20229;-76
2023/01/29 02:25:09;;;;;;;6.27;5.50;;;;;;;0.19;83.93;99232.88;5013469;28;20215;-76
2023/01/29 02:27:59;;;;;;;6.10;4.90;;;;;;;0.22;83.68;99232.00;5013231;28;20217;-77
2023/01/29 02:30:33;;;;;;;6.83;5.73;;;;;;;0.15;84.36;99241.63;5013062;28;20243;-76
2023/01/29 02:33:06;;;;;;;7.83;5.47;;;;;;;0.18;84.87;99246.75;5013373;28;20634;-76
2023/01/29 02:35:41;;;;;;;7.13;5.30;;;;;;;0.12;84.83;99241.63;5013209;28;20724;-76
2023/01/29 02:38:17;;;;;;;9.37;5.37;;;;;;;0.15;85.20;99231.22;5013076;28;20212;-77
2023/01/29 02:40:50;;;;;;;6.80;5.00;;;;;;;0.11;84.97;99239.91;5012737;28;20225;-76
2023/01/29 02:43:29;;;;;;;8.83;5.63;;;;;;;0.07;85.26;99239.97;5013122;28;20239;-76
2023/01/29 02:46:02;;;;;;;8.97;5.30;;;;;;;0.16;85.02;99243.31;5013037;28;20237;-76
2023/01/29 02:48:39;;;;;;;7.60;6.00;;;;;;;0.19;84.95;99245.88;5012831;28;20216;-76
2023/01/29 02:51:10;;;;;;;7.43;5.30;;;;;;;0.17;85.87;99244.16;5012521;28;20221;-76
2023/01/29 02:53:45;;;;;;;7.07;5.10;;;;;;;0.18;85.58;99236.38;5013021;28;20215;-76
2023/01/29 02:56:16;;;;;;;7.90;5.33;;;;;;;0.11;85.77;99239.91;5012865;28;20223;-78
2023/01/29 02:58:47;;;;;;;6.30;4.80;;;;;;;0.09;86.53;99231.28;5012520;28;20214;-76
2023/01/29 03:01:18;;;;;;;7.07;5.10;;;;;;;0.13;86.31;99232.94;5012877;28;20303;-76
2023/01/29 03:03:50;;;;;;;7.83;5.63;;;;;;;0.17;86.01;99237.25;5012545;28;20230;-76
2023/01/29 03:06:21;;;;;;;6.70;5.10;;;;;;;0.23;84.80;99228.50;5012738;28;20246;-76
2023/01/29 03:08:52;;;;;;;6.30;5.10;;;;;;;0.25;83.66;99227.63;5012249;28;20704;-76
2023/01/29 03:11:20;;;;;;;7.27;5.77;;;;;;;0.15;84.82;99231.22;5012459;28;20213;-76
2023/01/29 03:13:53;;;;;;;6.30;4.83;;;;;;;0.10;85.03;99235.59;5012632;28;20220;-76
2023/01/29 03:16:25;;;;;;;6.47;4.90;;;;;;;0.12;85.25;99243.34;5012845;28;20217;-76
2023/01/29 03:18:56;;;;;;;6.50;5.60;;;;;;;0.11;84.62;99233.84;5012331;28;20216;-76
2023/01/29 03:32:40;;;;;;;6.73;5.20;;;;;;;0.09;83.51;99227.81;5012183;28;20340;-76
2023/01/29 03:35:09;;;;;;;6.87;5.20;;;;;;;0.04;83.29;99232.19;5012215;28;20205;-76
2023/01/29 03:37:40;;;;;;;7.67;5.50;;;;;;;0.05;83.40;99214.00;5012175;28;20212;-76
2023/01/29 03:40:08;;;;;;;9.60;5.27;;;;;;;0.00;83.84;99226.16;5011545;28;20241;-76
2023/01/29 03:42:49;;;;;;;7.60;5.50;;;;;;;0.08;83.28;99219.13;5011774;28;20232;-76
2023/01/29 03:45:22;;;;;;;8.00;5.67;;;;;;;0.06;83.86;99220.91;5012038;28;20216;-76
2023/01/29 03:47:54;;;;;;;6.80;5.40;;;;;;;0.05;83.05;99224.38;5011826;28;20224;-76
2023/01/29 03:50:33;;;;;;;7.53;5.43;;;;;;;0.09;83.29;99230.41;5011537;28;20245;-76
2023/01/29 03:53:08;;;;;;;8.00;5.07;;;;;;;0.05;83.15;99223.50;5011739;28;20212;-76
2023/01/29 03:55:40;;;;;;;7.27;5.10;;;;;;;0.03;83.09;99235.66;5011937;28;20212;-76
2023/01/29 03:58:20;;;;;;;6.67;5.07;;;;;;;0.08;83.19;99228.69;5011874;28;20215;-76
2023/01/29 04:00:54;;;;;;;6.50;5.30;;;;;;;0.03;83.28;99223.53;5011483;28;20232;-76
2023/01/29 04:03:23;;;;;;;10.47;5.83;;;;;;;-0.04;83.32;99228.81;5011612;28;20237;-76
2023/01/29 04:05:57;;;;;;;8.07;5.93;;;;;;;-0.03;83.65;99231.41;5011534;28;20212;-76
2023/01/29 04:08:27;;;;;;;8.17;5.73;;;;;;;-0.12;83.18;99230.63;5011672;28;20244;-76
2023/01/29 04:10:57;;;;;;;8.37;6.00;;;;;;;-0.13;83.57;99230.63;5011370;28;20230;-76
2023/01/29 04:13:24;;;;;;;8.17;5.60;;;;;;;-0.14;83.40;99231.53;5011646;28;20209;-76
2023/01/29 04:15:56;;;;;;;8.30;5.90;;;;;;;-0.19;83.21;99226.34;5011414;28;20220;-74
2023/01/29 04:18:23;;;;;;;8.13;5.33;;;;;;;-0.17;83.85;99231.53;5011441;28;20212;-76
2023/01/29 04:20:51;;;;;;;8.00;5.30;;;;;;;-0.19;84.34;99238.50;5011094;28;20228;-76
2023/01/29 04:23:23;;;;;;;7.80;5.43;;;;;;;-0.27;84.03;99241.16;5011324;28;20711;-76
2023/01/29 04:25:58;;;;;;;8.10;6.00;;;;;;;-0.32;84.01;99244.69;5011414;28;20209;-78
2023/01/29 04:28:32;;;;;;;5.90;5.30;;;;;;;-0.25;84.08;99241.16;5011391;28;20593;-77
2023/01/29 04:31:04;;;;;;;7.23;5.57;;;;;;;-0.35;83.80;99247.28;5011287;28;20228;-78
2023/01/29 04:33:38;;;;;;;6.47;5.30;;;;;;;-0.29;83.60;99245.50;5012884;28;20679;-76
2023/01/29 04:36:21;;;;;;;8.90;5.70;;;;;;;-0.26;84.50;99247.22;5015497;28;20306;-76
2023/01/29 04:38:57;;;;;;;7.03;5.57;;;;;;;-0.18;83.77;99240.22;5015086;28;20216;-76
2023/01/29 04:41:31;;;;;;;7.73;5.30;;;;;;;-0.13;83.48;99237.56;5015491;28;20215;-76
2023/01/29 04:44:06;;;;;;;8.10;5.40;;;;;;;-0.22;83.53;99238.50;5015396;28;20225;-76
2023/01/29 04:46:45;;;;;;;8.40;6.30;;;;;;;-0.29;84.18;99242.03;5015188;28;20225;-76
2023/01/29 04:51:48;;;;;;;6.43;5.10;;;;;;;-0.22;84.45;99245.41;4994228;28;20228;-83
2023/01/29 04:54:22;;;;;;;9.37;6.50;;;;;;;-0.22;84.16;99238.50;4995760;28;20439;-83
2023/01/29 04:56:55;;;;;;;7.77;5.60;;;;;;;-0.31;84.07;99233.41;4995805;28;20582;-84
2023/01/29 04:59:26;;;;;;;7.57;5.50;;;;;;;-0.31;83.47;99236.00;4995257;28;20218;-85
2023/01/29 05:01:54;;;;;;;7.30;5.20;;;;;;;-0.33;83.77;99241.19;4995463;28;20213;-82
2023/01/29 05:04:22;;;;;;;7.80;5.87;;;;;;;-0.23;83.59;99247.19;4995496;28;20234;-82
2023/01/29 05:06:50;;;;;;;7.37;5.33;;;;;;;-0.25;84.30;99238.56;4995560;28;20241;-82
2023/01/29 05:09:18;;;;;;;7.10;5.53;;;;;;;-0.21;84.04;99241.09;4995081;28;20209;-83
2023/01/29 05:11:47;;;;;;;6.53;5.43;;;;;;;-0.27;83.43;99230.75;4995414;28;20221;-83
2023/01/29 05:14:18;;;;;;;8.87;5.77;;;;;;;-0.29;84.11;99249.84;4995325;28;20217;-83
2023/01/29 05:16:47;;;;;;;6.10;5.20;;;;;;;-0.28;84.71;99240.28;4995267;28;20596;-84
2023/01/29 05:19:16;;;;;;;7.33;5.57;;;;;;;-0.33;83.92;99236.00;4994761;28;20221;-84
2023/01/29 05:21:45;;;;;;;6.57;5.10;;;;;;;-0.35;84.73;99240.38;4995001;28;20792;-84
2023/01/29 05:24:14;;;;;;;7.40;5.73;;;;;;;-0.41;84.85;99247.34;4994907;28;20244;-84
2023/01/29 05:29:26;;;;;;;8.17;5.60;;;;;;;-0.24;83.40;99251.53;4994597;28;20304;-84
2023/01/29 05:31:52;;;;;;;8.53;5.40;;;;;;;-0.26;83.77;99244.63;4994875;28;20219;-84
2023/01/29 05:34:20;;;;;;;8.70;5.73;;;;;;;-0.28;83.63;99246.34;4994949;28;20209;-84
2023/01/29 05:36:47;;;;;;;6.97;5.67;;;;;;;-0.29;83.96;99239.44;4994719;28;20213;-84
2023/01/29 05:39:13;;;;;;;8.50;5.60;;;;;;;-0.39;84.56;99250.81;4994236;28;20225;-84
2023/01/29 05:41:40;;;;;;;8.53;5.87;;;;;;;-0.33;85.46;99240.38;4994952;28;20216;-84
2023/01/29 05:44:06;;;;;;;6.93;5.40;;;;;;;-0.35;85.18;99252.47;4994309;28;20237;-84
2023/01/29 05:46:33;;;;;;;7.57;5.50;;;;;;;-0.37;84.99;99229.09;4994641;28;20218;-84
2023/01/29 05:48:59;;;;;;;7.70;5.83;;;;;;;-0.38;85.19;99206.63;4994301;28;20213;-84
2023/01/29 05:51:27;;;;;;;6.90;6.00;;;;;;;-0.39;83.96;99198.88;4994297;28;20244;-84
2023/01/29 05:53:54;;;;;;;9.13;6.20;;;;;;;-0.39;85.09;99196.28;4994376;28;20213;-84
2023/01/29 05:56:20;;;;;;;9.17;6.23;;;;;;;-0.38;84.46;99190.19;4994629;28;20239;-84
2023/01/29 05:58:47;;;;;;;7.77;5.70;;;;;;;-0.50;85.82;99200.69;4994323;28;20224;-84
2023/01/29 06:01:19;;;;;;;8.83;5.70;;;;;;;-0.58;86.68;99223.22;4994275;28;20228;-84
2023/01/29 06:03:46;;;;;;;6.97;5.40;;;;;;;-0.58;87.50;99229.31;4994209;28;20237;-85
2023/01/29 06:06:13;;;;;;;6.80;5.40;;;;;;;-0.54;88.74;99232.72;4994239;28;20222;-84
2023/01/29 06:08:41;;;;;;;7.03;5.70;;;;;;;-0.48;89.04;99230.09;4994652;28;20221;-84
2023/01/29 06:11:09;;;;;;;7.10;5.70;;;;;;;-0.49;89.21;99230.97;4993980;28;20229;-84
2023/01/29 06:13:40;;;;;;;7.63;5.93;;;;;;;-0.49;89.42;99233.56;4994170;28;20213;-84
2023/01/29 06:16:07;;;;;;;7.40;5.50;;;;;;;-0.44;89.87;99243.03;4994416;28;20645;-84
2023/01/29 06:18:35;;;;;;;7.03;5.63;;;;;;;-0.40;89.46;99241.25;4994022;28;20217;-84
2023/01/29 06:21:02;;;;;;;9.07;6.13;;;;;;;-0.43;89.08;99231.75;4993561;28;20239;-84
2023/01/29 06:23:28;;;;;;;8.47;6.47;;;;;;;-0.38;86.89;99229.16;4994096;28;20283;-84
2023/01/29 06:26:01;;;;;;;8.63;5.60;;;;;;;-0.36;86.01;99227.38;4994153;28;20225;-84
2023/01/29 06:28:27;;;;;;;7.50;5.50;;;;;;;-0.32;85.52;99221.31;4993806;28;20209;-85
2023/01/29 06:30:57;;;;;;;7.03;5.50;;;;;;;-0.33;85.90;99229.97;4993475;28;20510;-84
2023/01/29 06:33:23;;;;;;;8.43;6.20;;;;;;;-0.31;86.70;99233.41;4994168;28;20209;-84
2023/01/29 06:35:49;;;;;;;7.97;5.93;;;;;;;-0.23;87.04;99231.59;4993552;28;20210;-84
2023/01/29 06:38:16;;;;;;;7.27;5.63;;;;;;;-0.24;86.90;99235.06;4993835;28;20476;-84
2023/01/29 06:40:45;;;;;;;7.37;6.03;;;;;;;-0.28;87.26;99229.88;4993346;28;20237;-84
2023/01/29 06:43:13;;;;;;;9.03;6.30;;;;;;;-0.26;87.09;99231.63;4993620;28;20236;-84
2023/01/29 06:45:46;;;;;;;6.33;5.50;;;;;;;-0.22;86.33;99233.31;4993482;28;20206;-84
2023/01/29 06:48:13;;;;;;;8.83;5.77;;;;;;;-0.22;85.73;99222.91;4993824;28;20218;-85
2023/01/29 06:50:39;;;;;;;8.17;6.10;;;;;;;-0.24;87.00;99238.53;4993276;28;20246;-85
2023/01/29 06:53:06;;;;;;;8.43;5.83;;;;;;;-0.25;86.89;99233.34;4993602;28;20213;-85
2023/01/29 06:55:33;;;;;;;8.10;5.80;;;;;;;-0.23;87.26;99241.97;4992534;28;20214;-85
2023/01/29 06:57:59;;;;;;;8.87;6.30;;;;;;;-0.28;86.03;99240.28;4993117;28;20280;-85
2023/01/29 07:00:27;;;;;;;7.33;6.07;;;;;;;-0.29;85.96;99236.84;4992649;28;20249;-84
2023/01/29 07:02:54;;;;;;;9.17;6.57;;;;;;;-0.22;84.89;99236.78;4993140;28;20585;-84
2023/01/29 07:05:20;;;;;;;7.83;5.90;;;;;;;-0.23;83.96;99234.19;4993267;28;20210;-84
2023/01/29 07:07:47;;;;;;;7.43;6.00;;;;;;;-0.29;85.33;99239.44;4992999;28;20692;-84
2023/01/29 07:10:13;;;;;;;7.93;6.33;;;;;;;-0.23;85.40;99244.59;4992674;28;20323;-84
2023/01/29 07:12:40;;;;;;;8.73;6.00;;;;;;;-0.17;85.24;99234.13;4992945;28;20216;-84
2023/01/29 07:15:07;;;;;;;7.53;5.90;;;;;;;-0.22;85.11;99232.44;4992765;28;20212;-84
2023/01/29 07:17:35;;;;;;;9.23;6.10;;;;;;;-0.25;85.13;99238.56;4993073;28;20312;-84
2023/01/29 07:20:01;;;;;;;9.40;6.67;;;;;;;-0.26;85.25;99237.66;4992462;28;20230;-84
2023/01/29 07:22:28;;;;;;;7.93;5.73;;;;;;;-0.28;85.54;99250.66;4992897;28;20235;-84
2023/01/29 07:24:54;;;;;;;7.53;5.80;;;;;;;-0.25;86.18;99248.94;4992619;28;20237;-84
2023/01/29 07:27:21;;;;;;;6.27;5.30;;;;;;;-0.22;85.83;99253.22;4992609;28;20213;-84
2023/01/29 07:29:47;;;;;;;8.23;5.77;;;;;;;-0.20;84.55;99253.19;4992243;28;20610;-84
2023/01/29 07:32:14;;;;;;;8.17;6.37;;;;;;;-0.21;84.20;99251.50;4992790;28;20213;-84
2023/01/29 07:34:41;;;;;;;7.90;5.50;;;;;;;-0.21;84.46;99256.69;4992677;28;20213;-84
2023/01/29 07:37:08;;;;;;;9.03;6.63;;;;;;;-0.08;83.72;99253.97;4992632;28;20225;-84
2023/01/29 07:39:34;;;;;;;10.07;6.03;;;;;;;-0.18;83.52;99255.78;4992128;28;20237;-85
2023/01/29 07:42:01;;;;;;;8.70;5.73;;;;;;;-0.18;83.01;99255.78;4992297;28;20220;-84
2023/01/29 07:44:28;;;;;;;8.40;5.73;;;;;;;-0.10;83.21;99260.06;4992573;28;20280;-84
2023/01/29 07:46:54;;;;;;;5.93;5.23;;;;;;;-0.09;84.29;99266.97;4992564;28;20228;-84
2023/01/29 07:49:21;;;;;;;6.30;5.13;;;;;;;-0.08;84.01;99261.75;4991933;28;20209;-83
2023/01/29 07:51:48;;;;;;;8.20;5.70;;;;;;;-0.07;84.45;99265.19;4992404;28;20221;-84
2023/01/29 07:54:15;;;;;;;7.57;5.47;;;;;;;-0.07;85.28;99279.06;4992296;28;20600;-84
2023/01/29 07:56:41;;;;;;;8.23;5.77;;;;;;;0.02;84.52;99276.38;4992182;28;20220;-85
2023/01/29 07:59:08;;;;;;;10.07;6.50;;;;;;;0.00;83.96;99272.09;4992007;28;20229;-84
2023/01/29 08:01:34;;;;;;;7.07;5.80;;;;;;;-0.01;83.64;99276.41;4992142;28;20218;-85
2023/01/29 08:04:01;;;;;;;9.23;5.83;;;;;;;-0.01;84.65;99275.53;4991914;28;20688;-85
2023/01/29 08:06:27;;;;;;;10.63;6.27;;;;;;;0.09;84.42;99275.47;4992134;28;20592;-85
2023/01/29 08:08:56;;;;;;;9.40;6.10;;;;;;;0.10;83.81;99277.19;4991834;28;20224;-84
2023/01/29 08:11:23;;;;;;;7.17;5.40;;;;;;;0.12;83.94;99262.41;4991896;28;20230;-85
2023/01/29 08:13:49;;;;;;;6.63;5.50;;;;;;;0.13;84.01;99271.09;4991876;28;20680;-85
2023/01/29 08:16:16;;;;;;;7.73;6.20;;;;;;;0.17;84.12;99281.44;4992218;28;20214;-85
2023/01/29 08:18:46;;;;;;;7.77;6.07;;;;;;;0.13;84.08;99282.34;4992140;28;20220;-85
2023/01/29 08:21:13;;;;;;;7.27;5.37;;;;;;;0.16;84.00;99290.13;4992207;28;20341;-83
2023/01/29 08:23:39;;;;;;;7.80;6.17;;;;;;;0.18;83.52;99293.56;4991747;28;20234;-84
2023/01/29 08:26:07;;;;;;;9.63;5.73;;;;;;;0.19;83.21;99287.47;4991776;28;20229;-85
2023/01/29 08:28:34;;;;;;;7.27;5.80;;;;;;;0.28;82.10;99289.13;4991823;28;20331;-83
2023/01/29 08:31:01;;;;;;;7.23;5.67;;;;;;;0.27;82.27;99288.28;4989234;28;20293;-84
2023/01/29 08:33:28;;;;;;;7.77;5.53;;;;;;;0.37;80.82;99279.47;4988741;28;20262;-76
2023/01/29 08:35:54;;;;;;;7.23;5.80;;;;;;;0.40;80.15;99274.25;4991070;28;20218;-83
2023/01/29 08:38:21;;;;;;;8.57;5.60;;;;;;;0.37;79.11;99274.28;4991745;28;20210;-83
2023/01/29 08:40:47;;;;;;;9.50;5.70;;;;;;;0.26;79.79;99281.31;4990009;28;20237;-86
2023/01/29 08:43:15;;;;;;;8.03;5.57;;;;;;;0.29;79.83;99283.03;4989271;28;20221;-85
2023/01/29 08:45:43;;;;;;;8.20;6.20;;;;;;;0.25;79.35;99281.38;4990656;28;20241;-83
2023/01/29 08:48:10;;;;;;;7.87;5.87;;;;;;;0.37;80.15;99287.28;4991896;28;20217;-82
2023/01/29 08:50:37;;;;;;;6.87;5.37;;;;;;;0.50;79.81;99281.06;4989760;28;20241;-84
2023/01/29 08:53:06;;;;;;;7.40;5.80;;;;;;;0.52;79.14;99279.31;4988898;28;20213;-85
2023/01/29 08:55:35;;;;;;;7.37;5.40;;;;;;;0.45;78.77;99272.44;4990322;28;20203;-84
2023/01/29 08:58:03;;;;;;;6.73;5.40;;;;;;;0.49;79.44;99283.72;4991871;28;20607;-85
2023/01/29 09:00:31;;;;;;;9.07;5.60;;;;;;;0.56;79.40;99275.78;4990193;28;20226;-84
2023/01/29 09:02:59;;;;;;;6.93;5.50;;;;;;;0.67;77.93;99276.53;4988886;28;20229;-84
2023/01/29 09:05:26;;;;;;;6.50;5.70;;;;;;;0.72;77.81;99274.75;4989576;28;20323;-83
2023/01/29 09:07:53;;;;;;;8.70;6.20;;;;;;;0.79;77.94;99276.38;4991430;28;20229;-83
2023/01/29 09:10:19;;;;;;;7.27;5.40;;;;;;;0.79;77.18;99284.19;4990567;28;20592;-84
2023/01/29 09:12:46;;;;;;;7.50;6.10;;;;;;;0.84;76.62;99295.41;4988854;28;20221;-84
2023/01/29 09:15:12;;;;;;;8.97;5.80;;;;;;;0.97;76.61;99276.16;4989173;28;20210;-84
2023/01/29 09:17:41;;;;;;;7.93;6.00;;;;;;;0.90;76.44;99284.94;4991586;28;20209;-84
2023/01/29 09:20:09;;;;;;;7.80;5.63;;;;;;;0.86;75.87;99275.41;4992878;28;20297;-84
2023/01/29 09:22:36;;;;;;;7.07;5.10;;;;;;;0.90;76.14;99271.91;4992465;28;20610;-81
2023/01/29 09:25:04;;;;;;;7.00;5.67;;;;;;;0.96;76.08;99278.75;4992325;28;20230;-82
2023/01/29 09:27:30;;;;;;;7.10;5.13;;;;;;;0.94;75.30;99280.53;4995106;28;20297;-85
2023/01/29 09:29:57;;;;;;;7.43;5.30;;;;;;;0.98;75.04;99277.88;4994673;28;20235;-85
2023/01/29 09:32:23;;;;;;;9.10;5.57;;;;;;;1.05;75.04;99282.09;4992085;28;20218;-86
2023/01/29 09:34:51;;;;;;;6.97;6.23;;;;;;;1.15;74.75;99280.22;4991996;28;20213;-85
2023/01/29 09:37:17;;;;;;;7.97;5.87;;;;;;;1.13;74.31;99280.28;4994881;28;20221;-88
2023/01/29 09:39:44;;;;;;;7.40;6.27;;;;;;;1.22;74.62;99268.88;4994628;28;20230;-87
2023/01/29 09:42:17;;;;;;;8.63;5.70;;;;;;;1.26;74.38;99271.41;4992428;28;20221;-87
2023/01/29 09:44:58;;;;;;;10.13;5.30;;;;;;;1.34;75.06;99263.47;4991910;28;20241;-88
2023/01/29 09:47:26;;;;;;;9.20;5.40;;;;;;;1.42;75.44;99267.69;4994676;28;20217;-87
2023/01/29 09:49:58;;;;;;;7.83;5.87;;;;;;;1.44;76.91;99262.44;4994108;28;20242;-88
2023/01/29 09:52:27;;;;;;;7.17;5.70;;;;;;;1.57;77.08;99261.38;4991943;28;20205;-87
2023/01/29 09:54:59;;;;;;;7.10;5.93;;;;;;;1.66;77.65;99246.44;4991982;28;20634;-88
2023/01/29 09:57:33;;;;;;;7.17;6.07;;;;;;;1.86;77.31;99241.78;4994278;28;20209;-89
2023/01/29 09:59:59;;;;;;;7.07;5.87;;;;;;;1.88;77.29;99240.00;4994996;28;20229;-91
2023/01/29 10:02:45;;;;;;;7.53;5.43;;;;;;;2.01;76.10;99225.00;4992545;28;20553;-89
2023/01/29 10:05:32;;;;;;;7.43;6.13;;;;;;;2.25;75.82;99217.59;4994300;28;20333;-87
2023/01/29 10:08:20;;;;;;;9.50;6.40;;;;;;;2.47;75.80;99218.91;4998389;28;20220;-91
2023/01/29 10:10:50;;;;;;;8.67;6.50;;;;;;;2.42;76.32;99219.84;4993832;28;20230;-88
2023/01/29 10:13:29;;;;;;;7.00;5.57;;;;;;;2.35;74.89;99213.06;4994159;28;20218;-88
2023/01/29 10:16:08;;;;;;;7.63;5.67;;;;;;;2.22;72.67;99195.91;4994278;28;20220;-87
2023/01/29 10:18:59;;;;;;;6.70;5.30;;;;;;;2.24;73.33;99200.22;4993963;28;20210;-88
2023/01/29 10:21:46;;;;;;;9.18;7.50;;;;;;;2.31;74.18;99209.66;4991779;28;20946;-90
2023/01/29 10:24:25;;;;;;;6.97;6.07;;;;;;;2.37;73.90;99212.13;4992038;28;20240;-90
2023/01/29 10:26:52;;;;;;;7.50;6.70;;;;;;;2.52;73.62;99222.25;4993156;28;20486;-91
2023/01/29 10:29:21;;;;;;;7.37;5.93;;;;;;;2.50;71.61;99211.00;4992800;28;20328;-91
2023/01/29 10:31:52;;;;;;;5.87;5.03;;;;;;;2.48;71.25;99198.88;4990867;28;20653;-91
2023/01/29 10:34:26;;;;;;;7.97;5.50;;;;;;;2.57;71.43;99193.47;4973667;28;20222;-91
2023/01/29 10:36:55;;;;;;;9.03;5.70;;;;;;;2.66;71.87;99204.59;4973660;28;20217;-90
2023/01/29 10:39:24;;;;;;;7.43;6.27;;;;;;;2.71;72.29;99201.88;4972967;28;20214;-90
2023/01/29 10:42:04;;;;;;;8.53;6.67;;;;;;;2.54;72.89;99215.28;4973115;28;20217;-90
2023/01/29 10:44:44;;;;;;;9.50;6.60;;;;;;;2.46;73.47;99227.59;4973588;28;20705;-91
2023/01/29 10:47:28;;;;;;;9.23;7.13;;;;;;;2.43;73.59;99221.56;4973544;28;20206;-90
2023/01/29 10:50:12;;;;;;;9.13;6.57;;;;;;;2.40;73.92;99219.88;4973682;28;20301;-92
2023/01/29 10:52:54;;;;;;;8.23;6.37;;;;;;;2.43;73.90;99212.00;4973420;28;20558;-91
2023/01/29 10:55:39;;;;;;;7.50;5.90;;;;;;;2.44;74.02;99208.50;4973814;28;20218;-91
2023/01/29 10:58:19;;;;;;;6.63;5.70;;;;;;;2.54;73.76;99204.84;4973810;28;20214;-90
2023/01/29 11:00:46;;;;;;;9.27;6.47;;;;;;;2.61;73.69;99216.84;4972480;28;20234;-90
2023/01/29 11:03:16;;;;;;;8.33;6.80;;;;;;;2.70;73.27;99216.66;4973292;28;20210;-92
2023/01/29 11:05:50;;;;;;;7.80;6.47;;;;;;;2.74;73.55;99218.31;4972367;28;20238;-91
2023/01/29 11:08:21;;;;;;;8.73;6.37;;;;;;;2.81;73.08;99219.06;4972169;28;20261;-88
2023/01/29 11:11:00;;;;;;;7.30;5.77;;;;;;;2.88;72.98;99220.66;4969994;28;20717;-89
2023/01/29 11:13:32;;;;;;;8.67;7.00;;;;;;;2.90;72.00;99201.44;4971873;28;20210;-92
2023/01/29 11:15:58;;;;;;;7.50;6.50;;;;;;;2.81;70.72;99193.78;4973527;28;20928;-88
2023/01/29 11:18:25;;;;;;;7.03;5.53;;;;;;;2.77;71.44;99192.16;4973550;28;20592;-82
2023/01/29 11:21:01;;;;;;;8.20;6.40;;;;;;;2.81;70.19;99178.13;4973131;28;20709;-85
2023/01/29 11:23:31;;;;;;;8.20;6.85;;;;;;;2.73;68.71;99167.00;4986901;28;20444;-87
2023/01/29 11:25:59;;;;;;;9.73;7.38;;;;;;;2.72;68.06;99154.84;4992481;28;20464;-87
2023/01/29 11:28:38;;;;;;;8.45;7.55;;;;;;;2.53;68.47;99140.50;4992184;28;20523;-90
2023/01/29 11:31:17;;;;;;;8.70;7.10;;;;;;;2.52;69.01;99141.34;4992665;28;20232;-87
2023/01/29 11:33:44;;;;;;;9.30;6.97;;;;;;;2.57;69.54;99159.56;4993589;28;20216;-90
2023/01/29 11:36:31;;;;;;;10.90;7.17;;;;;;;2.50;69.97;99152.75;4993053;28;20221;-92
2023/01/29 11:39:27;;;;;;;8.63;7.27;;;;;;;2.49;70.13;99154.47;4993038;28;20202;-89
2023/01/29 11:41:57;;;;;;;9.07;6.73;;;;;;;2.58;70.46;99149.06;4957905;28;20314;-88
2023/01/29 11:44:28;;;;;;;7.80;6.33;;;;;;;2.63;69.40;99142.00;4992958;28;20260;-92
2023/01/29 11:46:56;;;;;;;8.43;6.97;;;;;;;2.50;68.17;99140.53;4992714;28;20237;-87
2023/01/29 11:49:31;;;;;;;8.23;6.40;;;;;;;2.43;69.43;99149.41;4989768;28;20284;-87
2023/01/29 11:52:01;;;;;;;9.27;7.50;;;;;;;2.46;69.91;99148.47;4992488;28;20209;-88
2023/01/29 11:54:34;;;;;;;8.70;6.93;;;;;;;2.41;70.49;99151.19;4992483;28;20594;-87
2023/01/29 11:57:02;;;;;;;9.90;7.73;;;;;;;2.35;70.10;99146.09;4992232;28;20217;-89
2023/01/29 11:59:38;;;;;;;9.77;7.60;;;;;;;2.29;70.17;99138.41;4992369;28;20226;-89
2023/01/29 12:02:25;;;;;;;10.10;7.80;;;;;;;2.26;71.30;99146.28;4992365;28;20214;-89
2023/01/29 12:04:54;;;;;;;10.17;7.63;;;;;;;2.29;71.91;99132.31;4992312;28;20331;-86
2023/01/29 12:07:21;;;;;;;9.27;7.03;;;;;;;2.20;71.56;99122.09;4992464;28;20631;-91
2023/01/29 12:09:55;;;;;;;10.17;7.60;;;;;;;2.22;72.24;99115.94;4991988;28;20233;-92
2023/01/29 12:12:31;;;;;;;9.70;7.57;;;;;;;2.15;72.12;99116.09;4992680;28;20618;-91
2023/01/29 12:15:23;;;;;;;9.57;7.60;;;;;;;2.06;73.40;99117.13;4992128;28;20201;-89
2023/01/29 12:18:08;;;;;;;9.77;7.33;;;;;;;2.13;73.32;99110.91;4983001;28;20222;-90
2023/01/29 12:20:39;;;;;;;10.47;7.73;;;;;;;2.14;73.12;99107.41;4992153;28;20249;-91
2023/01/29 12:23:20;;;;;;;9.70;7.70;;;;;;;2.20;73.62;99099.44;4991219;28;20213;-91
2023/01/29 12:26:00;;;;;;;11.17;7.90;;;;;;;2.26;73.41;99094.09;4992337;28;20238;-88